EGLC/LCY METAR and TAF weather

Enter ICAO airport designator
Station Type Date Time Source
EGLC METAR 2021/05/17 21:50 UTC NOAA

EGLC 172150Z AUTO 23009KT 9999 -RA NCD 11/08 Q1010


Station Type Date Time Source
EGLC Decoded METAR 2021/05/17 21:50 UTC NOAA

London City Airport, United Kingdom (EGLC) 51-30N 000-30W
May 17, 2021 - 05:50 PM EDT / 2021.05.17 2150 UTC
Wind: from the SW (230 degrees) at 10 MPH (9 KT):0
Visibility: greater than 7 mile(s):0
Weather: light rain
Temperature: 51 F (11 C)
Dew Point: 46 F (8 C)
Relative Humidity: 81%
Pressure (altimeter): 29.83 in. Hg (1010 hPa)
ob: EGLC 172150Z AUTO 23009KT 9999 -RA NCD 11/08 Q1010
cycle: 22

Station Type Date Time Source
EGLC TAF 2018/10/15 21:30 UTC NOAA

TAF EGLC 152119Z 1521/1621 CNL

Example: see airport list